Mesa Verde, California
Current Conditions -  °F | °C
As of 7:52 AM on Wednesday 26 Nov 2014 (Local Time) from KBLH Reporting Station
Clear Clear  
Wind Chill: 54°   Ceiling: Unl
Heat Index: 54°   Visibility: 10mi
Dew Point: 12°   Wind: 0mph
Humidity: 19%   Direction: NA
Pressure: 30.32"   Gusts: NA
Location:  33.5664°N, 114.628°W
Report Text: KBLH 261552Z AUTO 00000KT 10SM CLR 12/M11 A3032 RMK AO2 SLP265 T01221111
Loading
Personal Weather Stations






























Interactive Weather Map New forecast layout! Learn more

10-Day Weather Forecast

Advertisements
Track Severe Weather on mobile